Time;durP1;ratioP1;P1;durP2;ratioP2;P2;SDS_P1;SDS_P2;PMS_P1;PMS_P2;Temp;Humidity;BMP_temperature;BMP_pressure;BME280_temperature;BME280_humidity;BME280_pressure;Samples;Min_cycle;Max_cycle;Signal;HPM_P1;HPM_P2
2023/04/01 00:01:16;;;;;;;0.20;0.20;;;;;;;13.24;93.01;99613.94;5077150;28;20024;-66
2023/04/01 00:03:47;;;;;;;0.20;0.20;;;;;;;13.25;92.39;99599.56;5095225;28;20099;-63
2023/04/01 00:06:16;;;;;;;0.20;0.20;;;;;;;13.21;92.06;99592.34;5077500;28;20062;-64
2023/04/01 00:08:42;;;;;;;0.20;0.20;;;;;;;13.28;92.62;99606.38;5063076;28;20049;-62
2023/04/01 00:11:10;;;;;;;0.20;0.20;;;;;;;13.27;93.14;99610.38;5054087;28;20447;-65
2023/04/01 00:13:38;;;;;;;0.20;0.20;;;;;;;13.19;91.88;99584.38;5053897;28;20028;-64
2023/04/01 00:16:07;;;;;;;0.20;0.20;;;;;;;13.28;92.15;99603.59;5054261;28;20025;-64
2023/04/01 00:18:36;;;;;;;0.20;0.20;;;;;;;13.21;92.82;99576.44;5054452;28;20033;-64
2023/04/01 00:21:02;;;;;;;0.20;0.20;;;;;;;13.18;93.54;99576.38;5053892;28;20400;-62
2023/04/01 00:23:27;;;;;;;0.20;0.20;;;;;;;13.04;93.85;99569.56;5053522;28;20083;-64
2023/04/01 00:25:58;;;;;;;0.20;0.20;;;;;;;13.28;93.14;99578.44;5053678;28;20021;-63
2023/04/01 00:28:26;;;;;;;0.20;0.20;;;;;;;13.21;92.85;99587.63;5053472;28;20068;-64
2023/04/01 00:30:54;;;;;;;0.20;0.20;;;;;;;13.26;93.03;99589.19;5053124;28;20487;-62
2023/04/01 00:33:22;;;;;;;0.30;0.30;;;;;;;13.20;93.30;99580.38;5053102;28;20029;-63
2023/04/01 00:35:48;;;;;;;0.20;0.20;;;;;;;13.16;93.98;99585.19;5052940;28;20032;-63
2023/04/01 00:38:14;;;;;;;0.20;0.20;;;;;;;13.18;94.38;99598.75;5053232;28;20025;-64
2023/04/01 00:40:44;;;;;;;0.20;0.20;;;;;;;13.18;94.01;99591.16;5052888;28;20090;-64
2023/04/01 00:43:19;;;;;;;0.20;0.20;;;;;;;13.27;94.44;99600.00;5052862;28;20044;-63
2023/04/01 00:45:48;;;;;;;0.20;0.20;;;;;;;13.26;94.12;99589.19;5052767;28;20029;-64
2023/04/01 00:48:20;;;;;;;0.20;0.20;;;;;;;13.32;93.10;99576.47;5053925;28;20108;-64
2023/04/01 00:50:52;;;;;;;0.20;0.20;;;;;;;13.62;92.62;99578.88;5053113;28;20025;-63
2023/04/01 00:53:27;;;;;;;0.20;0.20;;;;;;;13.46;92.61;99570.88;5052763;28;20524;-65
2023/04/01 00:56:32;;;;;;;0.20;0.20;;;;;;;13.50;92.94;99580.06;5052368;28;20119;-64
2023/04/01 00:59:02;;;;;;;0.20;0.20;;;;;;;13.62;93.18;99588.06;5054232;28;20033;-65
2023/04/01 01:01:32;;;;;;;0.20;0.20;;;;;;;13.60;92.62;99576.50;5053089;28;20124;-63
2023/04/01 01:04:02;;;;;;;0.20;0.20;;;;;;;13.45;93.84;99557.31;5053593;28;20025;-64
2023/04/01 01:06:39;;;;;;;0.20;0.20;;;;;;;13.41;94.39;99556.50;5052579;28;20021;-64
2023/04/01 01:09:59;;;;;;;0.20;0.20;;;;;;;13.36;95.92;99549.31;5052155;28;20051;-64
2023/04/01 01:12:27;;;;;;;0.20;0.20;;;;;;;13.33;96.34;99547.31;4975838;28;20022;-63
2023/04/01 01:15:12;;;;;;;0.20;0.20;;;;;;;13.29;97.04;99541.72;5037140;28;20045;-62
2023/04/01 01:17:53;;;;;;;0.20;0.20;;;;;;;13.34;97.85;99546.13;5052394;28;20525;-63
2023/04/01 01:20:37;;;;;;;0.20;0.20;;;;;;;13.34;98.00;99532.94;5052637;28;20036;-63
2023/04/01 01:23:08;;;;;;;0.20;0.20;;;;;;;13.32;98.14;99542.94;5052364;28;20029;-63
2023/04/01 01:25:49;;;;;;;0.20;0.20;;;;;;;13.32;98.51;99534.56;5052279;28;20503;-65
2023/04/01 01:28:51;;;;;;;0.20;0.20;;;;;;;13.25;98.76;99526.94;5053218;28;20025;-65
2023/04/01 01:31:26;;;;;;;0.20;0.20;;;;;;;13.21;99.55;99528.09;5052845;28;20032;-65
2023/04/01 01:34:09;;;;;;;0.20;0.20;;;;;;;13.19;100.00;99517.31;5052236;28;20025;-66
2023/04/01 01:36:42;;;;;;;0.20;0.20;;;;;;;13.17;99.86;99507.75;5052340;28;20051;-64
2023/04/01 01:39:12;;;;;;;0.20;0.20;;;;;;;13.07;100.00;99504.53;5057945;28;20032;-63
2023/04/01 01:41:41;;;;;;;0.20;0.20;;;;;;;13.09;100.00;99513.31;5056347;28;20275;-63
2023/04/01 01:44:09;;;;;;;0.20;0.20;;;;;;;13.04;100.00;99505.31;5056287;28;20029;-64
2023/04/01 01:46:38;;;;;;;0.20;0.20;;;;;;;13.32;100.00;99503.81;5056523;28;20032;-65
2023/04/01 01:49:10;;;;;;;0.20;0.20;;;;;;;13.47;100.00;99502.59;5057801;28;20039;-63
2023/04/01 01:51:36;;;;;;;0.20;0.20;;;;;;;13.42;100.00;99503.00;5055873;28;20028;-64
2023/04/01 01:54:04;;;;;;;0.20;0.20;;;;;;;13.46;100.00;99506.59;5056119;28;20029;-65
2023/04/01 01:56:35;;;;;;;0.20;0.20;;;;;;;13.44;100.00;99497.03;5056209;28;20400;-62
2023/04/01 01:59:05;;;;;;;0.20;0.20;;;;;;;13.47;100.00;99499.81;5055991;28;20056;-62
2023/04/01 02:01:37;;;;;;;0.20;0.20;;;;;;;13.48;100.00;99481.09;5056267;28;20103;-64
2023/04/01 02:04:04;;;;;;;0.20;0.20;;;;;;;13.51;100.00;99483.84;5056230;28;20033;-64
2023/04/01 02:06:39;;;;;;;0.20;0.20;;;;;;;13.58;100.00;99485.84;5055876;28;20486;-62
2023/04/01 02:09:08;;;;;;;0.20;0.20;;;;;;;13.72;100.00;99499.81;5083930;28;20048;-62
2023/04/01 02:11:44;;;;;;;0.20;0.20;;;;;;;13.37;100.00;99481.06;5097619;28;20035;-63
2023/04/01 02:14:26;;;;;;;0.20;0.20;;;;;;;13.45;100.00;99484.66;5079015;28;20027;-64
2023/04/01 02:16:55;;;;;;;0.20;0.20;;;;;;;13.45;100.00;99479.88;5079380;28;20059;-62
2023/04/01 02:19:25;;;;;;;0.20;0.20;;;;;;;13.39;100.00;99489.84;5078945;28;20066;-65
2023/04/01 02:21:57;;;;;;;0.20;0.20;;;;;;;13.37;100.00;99497.84;5079222;28;20031;-65
2023/04/01 02:24:26;;;;;;;0.20;0.20;;;;;;;13.36;100.00;99499.00;5079712;28;20039;-64
2023/04/01 02:26:55;;;;;;;0.20;0.20;;;;;;;13.38;100.00;99507.03;5078837;28;20020;-63
2023/04/01 02:29:23;;;;;;;0.20;0.20;;;;;;;13.22;100.00;99491.44;5095718;28;20123;-62
2023/04/01 02:31:52;;;;;;;0.20;0.20;;;;;;;13.42;100.00;99519.78;5079309;28;20371;-63
2023/04/01 02:34:18;;;;;;;0.20;0.20;;;;;;;13.32;100.00;99518.59;5078973;28;20024;-65
2023/04/01 02:36:46;;;;;;;0.20;0.20;;;;;;;13.25;100.00;99514.97;5078614;28;20122;-62
2023/04/01 02:39:13;;;;;;;0.20;0.20;;;;;;;13.30;100.00;99520.16;5095489;28;20558;-64
2023/04/01 02:41:42;;;;;;;0.20;0.20;;;;;;;13.28;100.00;99525.38;5078872;28;20024;-63
2023/04/01 02:44:08;;;;;;;0.20;0.20;;;;;;;13.21;100.00;99520.56;5078517;28;20459;-63
2023/04/01 02:46:36;;;;;;;0.20;0.20;;;;;;;13.20;100.00;99506.94;5078844;28;20114;-63
2023/04/01 02:49:02;;;;;;;0.20;0.20;;;;;;;13.12;100.00;99506.16;5094176;28;20032;-64
2023/04/01 02:51:30;;;;;;;0.20;0.20;;;;;;;13.17;100.00;99513.34;5078641;28;20031;-64
2023/04/01 02:54:01;;;;;;;0.20;0.20;;;;;;;13.16;100.00;99509.75;5079290;28;20363;-63
2023/04/01 02:56:31;;;;;;;0.20;0.20;;;;;;;13.27;100.00;99501.44;5095474;28;20051;-64
2023/04/01 02:58:56;;;;;;;0.20;0.20;;;;;;;13.11;100.00;99494.19;5078578;28;20439;-63
2023/04/01 03:01:22;;;;;;;0.20;0.20;;;;;;;13.04;100.00;99505.31;5078252;28;20115;-64
2023/04/01 03:03:47;;;;;;;0.20;0.20;;;;;;;12.97;100.00;99519.28;5078132;28;20040;-63
2023/04/01 03:06:16;;;;;;;0.20;0.20;;;;;;;12.84;100.00;99484.56;5096563;28;20088;-63
2023/04/01 03:08:42;;;;;;;0.20;0.20;;;;;;;12.76;100.00;99474.56;5095089;28;20047;-63
2023/04/01 03:11:11;;;;;;;0.20;0.20;;;;;;;12.43;100.00;99473.66;5078314;28;20166;-63
2023/04/01 03:13:39;;;;;;;0.20;0.20;;;;;;;12.33;100.00;99457.66;5077796;28;20071;-64
2023/04/01 03:16:06;;;;;;;0.20;0.20;;;;;;;12.34;100.00;99453.69;5077974;28;20024;-63
2023/04/01 03:18:34;;;;;;;0.20;0.20;;;;;;;12.19;100.00;99450.03;5095771;28;20027;-63
2023/04/01 03:21:18;;;;;;;0.20;0.20;;;;;;;12.24;100.00;99455.22;5079194;28;20067;-64
2023/04/01 03:23:43;;;;;;;;;;;;;;;12.22;100.00;99462.41;5097056;28;20099;-64
2023/04/01 03:26:12;;;;;;;0.20;0.20;;;;;;;12.28;100.00;99474.78;5094626;28;20418;-64
2023/04/01 03:28:43;;;;;;;0.20;0.20;;;;;;;12.28;100.00;99458.03;5078025;28;20107;-63
2023/04/01 03:31:11;;;;;;;0.20;0.20;;;;;;;12.32;100.00;99459.66;5077662;28;20035;-63
2023/04/01 03:33:44;;;;;;;0.20;0.20;;;;;;;12.22;100.00;99446.47;5078471;28;20024;-65
2023/04/01 03:36:12;;;;;;;0.30;0.30;;;;;;;12.20;100.00;99451.66;5077842;28;20024;-63
2023/04/01 03:38:38;;;;;;;0.20;0.20;;;;;;;12.31;100.00;99452.50;5094802;28;20474;-66
2023/04/01 03:41:07;;;;;;;0.20;0.20;;;;;;;12.30;100.00;99448.09;5077588;28;20573;-64
2023/04/01 03:43:33;;;;;;;0.20;0.20;;;;;;;12.27;100.00;99448.09;5077741;28;20031;-65
2023/04/01 03:45:58;;;;;;;0.20;0.20;;;;;;;12.33;100.00;99438.16;5094926;28;20378;-65
2023/04/01 03:48:27;;;;;;;0.20;0.20;;;;;;;12.30;100.00;99436.94;5077789;28;20039;-65
2023/04/01 03:50:52;;;;;;;0.20;0.20;;;;;;;12.23;100.00;99450.06;5096228;28;20055;-64
2023/04/01 03:53:18;;;;;;;0.20;0.20;;;;;;;12.21;100.00;99453.25;5078367;28;20027;-64
2023/04/01 03:55:46;;;;;;;0.20;0.20;;;;;;;12.17;100.00;99441.25;5077126;28;20463;-63
2023/04/01 03:58:15;;;;;;;0.20;0.20;;;;;;;12.14;100.00;99446.81;5077793;28;20114;-64
2023/04/01 04:00:40;;;;;;;0.20;0.20;;;;;;;12.06;100.00;99455.16;5076903;28;20459;-62
2023/04/01 04:03:06;;;;;;;0.20;0.20;;;;;;;12.05;100.00;99463.91;5077117;28;20035;-63
2023/04/01 04:05:32;;;;;;;0.20;0.20;;;;;;;12.06;100.00;99463.53;5077291;28;20028;-66
2023/04/01 04:07:57;;;;;;;0.20;0.20;;;;;;;12.01;100.00;99472.25;5093557;28;20529;-62
2023/04/01 04:10:25;;;;;;;0.20;0.20;;;;;;;12.11;100.00;99453.19;5077206;28;20024;-63
2023/04/01 04:12:52;;;;;;;0.20;0.20;;;;;;;12.03;100.00;99444.78;5076884;28;20094;-65
2023/04/01 04:15:18;;;;;;;0.20;0.20;;;;;;;11.84;100.00;99406.06;5093939;28;20031;-65
2023/04/01 04:17:47;;;;;;;0.20;0.20;;;;;;;12.01;100.00;99449.94;5093725;28;20094;-66
2023/04/01 04:20:13;;;;;;;0.20;0.20;;;;;;;12.23;100.00;99458.41;5077005;28;20051;-64
2023/04/01 04:22:41;;;;;;;0.20;0.20;;;;;;;12.21;100.00;99461.59;5076807;28;20458;-67
2023/04/01 04:25:12;;;;;;;0.20;0.20;;;;;;;12.21;100.00;99458.03;5060284;28;20032;-63
2023/04/01 04:27:40;;;;;;;0.20;0.20;;;;;;;12.26;100.00;99471.59;5093530;28;20545;-66
2023/04/01 04:30:07;;;;;;;0.20;0.20;;;;;;;12.37;100.00;99478.00;5076875;28;20032;-65
2023/04/01 04:32:37;;;;;;;0.20;0.20;;;;;;;12.27;100.00;99496.31;5076555;28;20088;-63
2023/04/01 04:35:05;;;;;;;0.20;0.20;;;;;;;12.20;100.00;99485.13;5076360;28;20051;-65
2023/04/01 04:37:33;;;;;;;0.20;0.20;;;;;;;12.17;100.00;99480.31;5077215;28;20024;-64
2023/04/01 04:40:03;;;;;;;0.20;0.20;;;;;;;12.27;100.00;99493.50;5076660;28;20031;-65
2023/04/01 04:42:29;;;;;;;0.20;0.20;;;;;;;12.16;100.00;99505.81;5076847;28;20020;-64
2023/04/01 04:44:55;;;;;;;0.20;0.20;;;;;;;12.13;100.00;99512.16;5076563;28;20459;-64
2023/04/01 04:47:22;;;;;;;0.20;0.20;;;;;;;12.29;100.00;99515.44;5076214;28;20390;-63
2023/04/01 04:49:48;;;;;;;0.20;0.20;;;;;;;12.28;100.00;99516.63;5076208;28;20070;-65
2023/04/01 04:52:16;;;;;;;0.20;0.20;;;;;;;12.36;100.00;99503.50;5076147;28;20052;-65
2023/04/01 04:54:44;;;;;;;0.22;0.22;;;;;;;12.56;100.00;99502.78;5076673;28;20020;-66
2023/04/01 04:57:12;;;;;;;0.20;0.20;;;;;;;12.65;100.00;99505.22;5094556;28;20032;-66
2023/04/01 04:59:42;;;;;;;0.20;0.20;;;;;;;12.82;100.00;99510.06;5076405;28;20031;-65
2023/04/01 05:02:13;;;;;;;0.20;0.20;;;;;;;12.91;100.00;99501.31;5076016;28;20035;-63
2023/04/01 05:04:38;;;;;;;0.20;0.20;;;;;;;13.05;100.00;99506.94;5076786;28;20469;-65
2023/04/01 05:07:06;;;;;;;0.20;0.20;;;;;;;13.18;100.00;99503.75;5076057;28;20070;-65
2023/04/01 05:09:33;;;;;;;0.20;0.20;;;;;;;13.25;100.00;99501.00;5072037;28;20132;-64
2023/04/01 05:12:01;;;;;;;0.20;0.20;;;;;;;13.27;100.00;99493.03;5052084;28;20029;-64
2023/04/01 05:14:28;;;;;;;0.20;0.20;;;;;;;13.28;100.00;99486.25;5052517;28;20028;-63
2023/04/01 05:16:54;;;;;;;0.20;0.20;;;;;;;13.29;100.00;99476.66;5053125;28;20025;-65
2023/04/01 05:19:22;;;;;;;0.20;0.20;;;;;;;13.36;100.00;99465.50;5053293;28;20382;-68
2023/04/01 05:21:52;;;;;;;0.20;0.20;;;;;;;13.39;100.00;99475.88;5055664;28;20031;-67
2023/04/01 05:24:20;;;;;;;0.20;0.20;;;;;;;13.42;100.00;99469.47;5054811;28;20025;-65
2023/04/01 05:26:48;;;;;;;0.20;0.20;;;;;;;13.58;100.00;99469.06;5055527;28;20052;-63
2023/04/01 05:29:14;;;;;;;0.20;0.20;;;;;;;13.75;100.00;99471.06;5055302;28;20029;-70
2023/04/01 05:31:40;;;;;;;0.20;0.20;;;;;;;13.70;100.00;99459.50;5054515;28;20033;-66
2023/04/01 05:34:05;;;;;;;0.20;0.20;;;;;;;13.67;100.00;99458.28;5055089;28;20094;-66
2023/04/01 05:36:31;;;;;;;0.20;0.20;;;;;;;13.92;100.00;99466.66;5054309;28;20029;-66
2023/04/01 05:38:56;;;;;;;0.20;0.20;;;;;;;14.31;100.00;99466.53;5054458;28;20037;-66
2023/04/01 05:41:22;;;;;;;0.20;0.20;;;;;;;14.70;100.00;99457.19;5055347;28;20091;-68
2023/04/01 05:43:50;;;;;;;0.20;0.20;;;;;;;15.15;100.00;99460.91;5055075;28;20514;-68
2023/04/01 05:46:15;;;;;;;0.20;0.20;;;;;;;15.36;100.00;99471.16;5054657;28;20033;-66
2023/04/01 05:48:46;;;;;;;0.20;0.20;;;;;;;15.52;100.00;99493.06;5055075;28;20032;-70
2023/04/01 05:51:13;;;;;;;0.20;0.20;;;;;;;15.60;99.87;99490.97;5054342;28;20032;-67
2023/04/01 05:53:39;;;;;;;0.20;0.20;;;;;;;15.73;97.37;99502.53;5055965;28;20077;-68
2023/04/01 05:56:05;;;;;;;0.20;0.20;;;;;;;15.90;96.20;99507.16;5054619;28;20114;-66
2023/04/01 05:58:36;;;;;;;0.20;0.20;;;;;;;16.45;92.85;99506.97;5054498;28;20028;-68
2023/04/01 06:01:06;;;;;;;0.20;0.20;;;;;;;16.83;88.14;99503.31;5055014;28;20044;-65
2023/04/01 06:03:35;;;;;;;0.20;0.20;;;;;;;16.93;88.89;99519.25;5054975;28;20021;-67
2023/04/01 06:06:01;;;;;;;0.20;0.20;;;;;;;16.80;88.65;99521.03;5055549;28;20100;-68
2023/04/01 06:08:30;;;;;;;0.20;0.20;;;;;;;16.57;87.51;99502.03;5054507;28;20056;-63
2023/04/01 06:11:28;;;;;;;0.20;0.20;;;;;;;16.44;89.17;99504.59;5054744;28;20029;-67
2023/04/01 06:14:11;;;;;;;0.20;0.20;;;;;;;16.21;91.64;99525.69;5024827;28;20037;-64
2023/04/01 06:17:11;;;;;;;0.20;0.20;;;;;;;15.86;90.22;99520.41;5055222;28;20049;-67
2023/04/01 06:19:42;;;;;;;0.20;0.20;;;;;;;15.60;90.10;99525.41;5055033;28;20088;-65
2023/04/01 06:22:35;;;;;;;0.20;0.20;;;;;;;15.48;92.68;99530.72;5055149;28;20048;-68
2023/04/01 06:25:14;;;;;;;0.20;0.20;;;;;;;15.29;96.68;99529.28;5056718;28;20036;-64
2023/04/01 06:27:47;;;;;;;0.20;0.20;;;;;;;15.09;100.00;99498.16;5058760;28;20056;-69
2023/04/01 06:30:22;;;;;;;;;;;;;;;15.04;98.85;99519.00;5058969;28;20486;-65
2023/04/01 06:33:18;;;;;;;0.20;0.20;;;;;;;14.94;100.00;99520.66;5074940;28;20043;-64
2023/04/01 06:35:55;;;;;;;0.20;0.20;;;;;;;14.90;100.00;99516.28;5058299;28;20025;-65
2023/04/01 06:38:38;;;;;;;0.20;0.20;;;;;;;14.79;100.00;99518.34;5057787;28;20021;-65
2023/04/01 06:41:43;;;;;;;0.20;0.20;;;;;;;14.79;100.00;99521.13;5057139;28;20108;-66
2023/04/01 06:44:15;;;;;;;0.20;0.20;;;;;;;14.64;100.00;99504.38;5042230;28;20031;-66
2023/04/01 06:46:43;;;;;;;0.20;0.20;;;;;;;14.91;100.00;99520.66;5055701;28;20473;-63
2023/04/01 06:49:21;;;;;;;0.20;0.20;;;;;;;14.97;100.00;99518.22;5056080;28;20079;-66
2023/04/01 06:52:24;;;;;;;0.20;0.20;;;;;;;15.21;100.00;99531.31;5055271;28;20480;-63
2023/04/01 06:55:01;;;;;;;0.20;0.20;;;;;;;15.26;99.04;99532.88;5055975;28;20029;-65
2023/04/01 06:57:40;;;;;;;0.20;0.20;;;;;;;14.96;97.77;99503.44;5055270;28;20040;-65
2023/04/01 07:00:27;;;;;;;0.20;0.20;;;;;;;15.42;96.80;99542.38;5055305;28;20021;-64
2023/04/01 07:03:33;;;;;;;0.20;0.20;;;;;;;16.41;91.83;99545.53;5055326;28;20037;-67
2023/04/01 07:06:04;;;;;;;0.20;0.20;;;;;;;16.27;88.83;99544.88;5055073;28;20078;-67
2023/04/01 07:08:36;;;;;;;0.20;0.20;;;;;;;16.34;88.68;99539.19;5073706;28;20127;-64
2023/04/01 07:11:09;;;;;;;0.20;0.20;;;;;;;16.38;88.96;99539.94;5096758;28;20577;-67
2023/04/01 07:13:58;;;;;;;0.20;0.20;;;;;;;16.40;87.41;99526.28;5078687;28;20058;-66
2023/04/01 07:16:34;;;;;;;0.20;0.20;;;;;;;17.29;81.43;99513.91;5095934;28;20025;-66
2023/04/01 07:19:18;;;;;;;0.20;0.20;;;;;;;18.03;75.12;99531.63;5078377;28;20032;-67
2023/04/01 07:21:56;;;;;;;0.20;0.20;;;;;;;18.52;70.34;99531.91;5094901;28;20032;-64
2023/04/01 07:24:27;;;;;;;0.20;0.20;;;;;;;18.98;67.12;99530.19;5078409;28;20098;-65
2023/04/01 07:26:55;;;;;;;0.20;0.20;;;;;;;19.15;64.90;99527.41;5078235;28;20479;-66
2023/04/01 07:29:24;;;;;;;0.20;0.20;;;;;;;18.88;64.01;99530.41;5078023;28;20038;-64
2023/04/01 07:32:19;;;;;;;0.20;0.20;;;;;;;18.87;63.63;99540.09;5094807;28;20024;-67
2023/04/01 07:35:04;;;;;;;0.20;0.20;;;;;;;18.34;63.68;99548.34;5074465;28;20136;-67
2023/04/01 07:37:45;;;;;;;0.20;0.20;;;;;;;18.89;63.00;99540.44;5078418;28;20054;-66
2023/04/01 07:40:32;;;;;;;0.20;0.20;;;;;;;18.58;62.76;99546.25;5078268;28;20035;-64
2023/04/01 07:43:07;;;;;;;0.20;0.20;;;;;;;19.35;61.50;99536.63;5079357;28;20069;-66
2023/04/01 07:45:51;;;;;;;0.20;0.20;;;;;;;18.91;62.48;99512.59;5077317;28;20035;-65
2023/04/01 07:48:31;;;;;;;;;;;;;;;18.56;63.15;99546.72;5077736;28;20060;-64
2023/04/01 07:51:08;;;;;;;0.20;0.20;;;;;;;19.00;60.00;99555.09;5094677;28;19995;-66
2023/04/01 07:53:59;;;;;;;0.20;0.20;;;;;;;18.67;61.85;99548.53;5077106;28;20088;-65
2023/04/01 07:56:51;;;;;;;0.20;0.20;;;;;;;18.19;63.87;99541.41;5077372;28;20024;-65
2023/04/01 07:59:54;;;;;;;0.20;0.20;;;;;;;17.84;63.98;99523.09;5077397;28;20037;-65
2023/04/01 08:02:41;;;;;;;0.20;0.20;;;;;;;17.87;64.76;99544.78;5077280;28;20020;-65
2023/04/01 08:05:21;;;;;;;0.20;0.20;;;;;;;17.82;64.25;99551.69;5077217;28;20102;-66
2023/04/01 08:08:06;;;;;;;0.20;0.20;;;;;;;17.89;63.71;99529.03;5094262;28;20077;-66
2023/04/01 08:10:43;;;;;;;0.20;0.20;;;;;;;18.04;63.41;99552.09;5077522;28;20470;-67
2023/04/01 08:13:11;;;;;;;0.20;0.20;;;;;;;18.31;61.40;99554.84;5077277;28;20024;-67
2023/04/01 08:15:54;;;;;;;0.20;0.20;;;;;;;18.11;61.68;99557.63;5076591;28;20169;-67
2023/04/01 08:19:01;;;;;;;0.20;0.20;;;;;;;18.27;61.13;99563.38;5095310;28;20035;-66
2023/04/01 08:21:38;;;;;;;0.20;0.20;;;;;;;19.38;59.19;99553.44;5035593;28;20094;-65
2023/04/01 08:24:22;;;;;;;0.20;0.20;;;;;;;19.72;56.41;99554.31;5052067;28;20041;-65
2023/04/01 08:26:55;;;;;;;0.20;0.20;;;;;;;20.01;54.69;99549.53;5063721;28;20051;-67
2023/04/01 08:29:26;;;;;;;0.20;0.20;;;;;;;20.34;54.13;99550.25;5076412;28;20055;-67
2023/04/01 08:32:08;;;;;;;0.20;0.20;;;;;;;20.45;53.09;99549.19;5077091;28;20089;-65
2023/04/01 08:34:37;;;;;;;0.20;0.20;;;;;;;20.63;52.85;99555.19;5075783;28;20113;-67
2023/04/01 08:37:26;;;;;;;0.20;0.20;;;;;;;20.83;51.38;99553.00;5094394;28;20042;-65
2023/04/01 08:40:16;;;;;;;0.20;0.20;;;;;;;20.95;50.88;99544.97;5076193;28;20089;-64
2023/04/01 08:43:08;;;;;;;0.20;0.20;;;;;;;20.88;51.11;99555.25;5093899;28;20024;-65
2023/04/01 08:45:52;;;;;;;0.20;0.20;;;;;;;20.33;52.46;99548.69;5073256;28;20479;-67
2023/04/01 08:48:48;;;;;;;0.20;0.20;;;;;;;20.86;51.29;99540.75;5093699;28;20134;-67
2023/04/01 08:51:36;;;;;;;0.20;0.20;;;;;;;20.57;52.01;99551.31;5076313;28;20478;-67
2023/04/01 08:54:05;;;;;;;0.20;0.20;;;;;;;20.21;53.24;99563.53;5076436;28;20036;-66
2023/04/01 08:56:48;;;;;;;0.20;0.20;;;;;;;21.26;51.14;99567.91;5076123;28;20035;-65
2023/04/01 09:00:00;;;;;;;0.20;0.20;;;;;;;21.50;48.24;99572.00;5093382;28;20024;-62
2023/04/01 09:03:03;;;;;;;0.20;0.20;;;;;;;21.04;50.34;99567.72;5060758;28;20039;-65
2023/04/01 09:05:47;;;;;;;0.20;0.20;;;;;;;21.52;49.48;99575.19;5093354;28;20046;-63
2023/04/01 09:08:19;;;;;;;0.20;0.20;;;;;;;21.15;48.51;99562.56;5075438;28;20073;-66
2023/04/01 09:11:12;;;;;;;0.20;0.20;;;;;;;21.32;47.22;99566.13;5093161;28;20071;-63
2023/04/01 09:14:12;;;;;;;0.15;0.15;;;;;;;20.72;48.06;99580.78;5075679;28;20123;-63
2023/04/01 09:16:52;;;;;;;0.20;0.20;;;;;;;20.68;47.81;99585.72;5076377;28;20028;-64
2023/04/01 09:19:37;;;;;;;0.20;0.20;;;;;;;20.13;49.29;99550.84;5075562;28;20039;-64
2023/04/01 09:22:15;;;;;;;0.20;0.20;;;;;;;20.37;50.45;99574.03;5075991;28;20029;-63
2023/04/01 09:24:59;;;;;;;0.10;0.10;;;;;;;20.30;51.93;99577.84;5075934;28;20066;-64
2023/04/01 09:27:30;;;;;;;0.20;0.20;;;;;;;20.39;52.02;99575.16;5075350;28;20063;-64
2023/04/01 09:30:19;;;;;;;0.10;0.10;;;;;;;20.52;52.20;99574.47;5075566;28;20028;-63
2023/04/01 09:33:01;;;;;;;0.20;0.20;;;;;;;19.85;54.57;99575.72;5075799;28;20024;-66
2023/04/01 09:35:45;;;;;;;0.20;0.20;;;;;;;20.15;52.83;99529.41;5091980;28;20040;-65
2023/04/01 09:38:19;;;;;;;0.20;0.20;;;;;;;19.94;53.49;99506.59;5092681;28;20024;-65
2023/04/01 09:40:56;;;;;;;0.20;0.20;;;;;;;20.35;51.42;99577.31;5075726;28;20036;-64
2023/04/01 09:43:44;;;;;;;0.20;0.20;;;;;;;20.28;51.87;99579.50;5075301;28;20020;-63
2023/04/01 09:46:39;;;;;;;0.20;0.20;;;;;;;20.65;51.82;99561.97;5092180;28;20041;-66
2023/04/01 09:49:37;;;;;;;0.20;0.20;;;;;;;20.72;50.57;99574.31;5092853;28;20040;-63
2023/04/01 09:52:20;;;;;;;0.20;0.20;;;;;;;21.30;49.19;99551.59;5092390;28;20032;-66
2023/04/01 09:54:58;;;;;;;;;;;;;;;21.67;45.81;99569.84;5076361;28;20034;-66
2023/04/01 09:57:32;;;;;;;0.20;0.20;;;;;;;22.31;43.07;99564.88;5092321;28;19912;-64
2023/04/01 10:00:20;;;;;;;0.20;0.20;;;;;;;22.49;43.42;99561.44;5079155;28;20028;-66
2023/04/01 10:02:58;;;;;;;0.20;0.20;;;;;;;22.53;45.51;99569.81;5079626;28;20036;-65
2023/04/01 10:06:11;;;;;;;0.20;0.20;;;;;;;22.56;46.67;99566.84;5078753;28;20070;-64
2023/04/01 10:08:43;;;;;;;0.20;0.20;;;;;;;23.16;45.30;99563.81;5061730;28;20139;-64
2023/04/01 10:11:17;;;;;;;0.10;0.10;;;;;;;22.65;44.43;99552.75;5055608;28;20272;-66
2023/04/01 10:14:00;;;;;;;0.20;0.20;;;;;;;23.07;43.65;99549.59;5056042;28;20028;-66
2023/04/01 10:16:34;;;;;;;0.20;0.20;;;;;;;23.77;42.82;99550.09;5055487;28;20447;-66
2023/04/01 10:19:24;;;;;;;0.20;0.20;;;;;;;24.30;41.60;99542.16;5055761;28;20442;-65
2023/04/01 10:22:28;;;;;;;0.20;0.20;;;;;;;23.56;41.70;99545.28;5055351;28;20528;-65
2023/04/01 10:25:06;;;;;;;0.20;0.20;;;;;;;23.44;42.64;99550.59;5055118;28;20029;-64
2023/04/01 10:27:43;;;;;;;0.20;0.20;;;;;;;23.64;42.22;99555.88;5056011;28;20033;-64
2023/04/01 10:30:35;;;;;;;0.20;0.20;;;;;;;21.94;46.83;99552.38;5056640;28;20035;-66
2023/04/01 10:33:22;;;;;;;0.20;0.20;;;;;;;20.71;50.37;99552.94;5055137;28;20025;-64
2023/04/01 10:36:13;;;;;;;0.20;0.20;;;;;;;20.48;51.43;99556.81;5055483;28;20362;-66
2023/04/01 10:39:04;;;;;;;0.20;0.20;;;;;;;20.69;51.33;99547.72;5054900;28;20028;-66
2023/04/01 10:41:42;;;;;;;0.20;0.20;;;;;;;21.47;46.01;99521.19;5019126;28;20037;-65
2023/04/01 10:44:44;;;;;;;0.10;0.10;;;;;;;22.21;42.80;99558.38;5054889;28;20032;-68
2023/04/01 10:48:01;;;;;;;0.20;0.20;;;;;;;22.96;39.13;99558.53;5055418;28;20376;-63
2023/04/01 10:50:42;;;;;;;0.10;0.10;;;;;;;22.62;40.52;99553.66;5012512;28;20037;-65
2023/04/01 10:53:32;;;;;;;0.20;0.20;;;;;;;22.81;39.61;99553.81;5054501;28;20032;-67
2023/04/01 10:56:16;;;;;;;0.20;0.20;;;;;;;23.10;40.29;99547.88;5054550;28;20032;-66
2023/04/01 10:59:06;;;;;;;0.20;0.20;;;;;;;23.15;40.79;99550.09;5054821;28;20029;-66
2023/04/01 11:01:56;;;;;;;0.20;0.20;;;;;;;22.86;41.48;99551.19;5054708;28;20053;-64
2023/04/01 11:04:59;;;;;;;0.20;0.20;;;;;;;23.12;41.91;99539.72;5055115;28;20036;-63
2023/04/01 11:07:34;;;;;;;0.20;0.20;;;;;;;22.92;41.83;99549.34;5054817;28;20025;-64
2023/04/01 11:10:43;;;;;;;0.20;0.20;;;;;;;23.11;38.96;99543.78;5053909;28;20066;-63
2023/04/01 11:13:41;;;;;;;0.20;0.20;;;;;;;22.20;40.91;99542.59;5071187;28;20123;-63
2023/04/01 11:16:31;;;;;;;0.20;0.20;;;;;;;22.98;39.41;99552.38;5032101;28;20583;-65
2023/04/01 11:19:09;;;;;;;0.20;0.20;;;;;;;23.27;37.79;99552.06;5071489;28;20491;-64
2023/04/01 11:21:53;;;;;;;0.20;0.20;;;;;;;23.55;37.81;99535.19;5071018;28;20079;-64
2023/04/01 11:24:49;;;;;;;0.10;0.10;;;;;;;23.59;38.23;99538.63;5056116;28;20021;-63
2023/04/01 11:27:48;;;;;;;0.20;0.20;;;;;;;24.10;33.56;99541.81;5071501;28;20028;-63
2023/04/01 11:30:58;;;;;;;0.20;0.20;;;;;;;23.88;35.01;99538.31;5070879;28;20032;-65
2023/04/01 11:33:50;;;;;;;0.20;0.20;;;;;;;23.35;35.92;99519.31;5060105;28;20120;-64
2023/04/01 11:37:08;;;;;;;0.17;0.17;;;;;;;22.97;35.70;99542.28;5070713;28;20025;-64
2023/04/01 11:39:50;;;;;;;0.20;0.20;;;;;;;;;;5041223;28;20045;-64
2023/04/01 11:42:40;;;;;;;0.10;0.10;;;;;;;22.61;37.80;99529.41;5071466;28;20024;-62
2023/04/01 11:45:35;;;;;;;0.20;0.20;;;;;;;22.93;36.74;99525.41;5070640;28;20033;-61
2023/04/01 11:48:23;;;;;;;0.10;0.10;;;;;;;22.11;39.82;99524.75;5070363;28;20039;-66
2023/04/01 11:51:30;;;;;;;0.20;0.20;;;;;;;22.14;38.32;99524.59;5070733;28;20029;-65
2023/04/01 11:54:25;;;;;;;0.20;0.20;;;;;;;22.03;36.16;99523.34;5070369;28;20032;-67
2023/04/01 11:57:12;;;;;;;0.20;0.20;;;;;;;21.83;36.31;99523.63;5070573;28;20067;-64
2023/04/01 11:59:59;;;;;;;0.13;0.13;;;;;;;22.02;39.03;99521.78;5070352;28;20029;-64
2023/04/01 12:02:46;;;;;;;0.10;0.10;;;;;;;21.95;39.24;99528.50;5070513;28;20091;-62
2023/04/01 12:05:28;;;;;;;0.20;0.20;;;;;;;21.90;39.09;99541.19;5070256;28;20039;-62
2023/04/01 12:08:08;;;;;;;0.20;0.20;;;;;;;22.07;37.73;99538.19;5070037;28;20056;-66
2023/04/01 12:10:39;;;;;;;0.20;0.20;;;;;;;21.57;39.60;99494.56;5054365;28;20406;-66
2023/04/01 12:13:31;;;;;;;0.10;0.10;;;;;;;22.00;37.36;99544.91;5055319;28;20060;-66
2023/04/01 12:16:09;;;;;;;0.20;0.20;;;;;;;22.28;38.14;99540.31;5054131;28;20048;-64
2023/04/01 12:18:50;;;;;;;0.20;0.20;;;;;;;21.21;36.47;99498.53;5053625;28;20029;-63